createdAt,value
2022-10-02T00:00:01.180Z,100470.67
2022-10-02T00:02:55.899Z,100464.02
2022-10-02T00:05:33.101Z,100465.33
2022-10-02T00:08:05.119Z,100468.92
2022-10-02T00:10:53.390Z,100466.86
2022-10-02T00:13:29.184Z,100449.02
2022-10-02T00:15:58.218Z,100464.19
2022-10-02T00:18:31.728Z,100463.84
2022-10-02T00:21:26.420Z,100469.67
2022-10-02T00:23:59.300Z,100445.25
2022-10-02T00:26:36.030Z,100455.54
2022-10-02T00:29:33.409Z,100459.71
2022-10-02T00:32:19.372Z,100469.94
2022-10-02T00:35:16.243Z,100467.81
2022-10-02T00:38:19.200Z,100475.30
2022-10-02T00:41:08.568Z,100474.27
2022-10-02T00:43:48.928Z,100472.85
2022-10-02T00:46:29.432Z,100467.41
2022-10-02T00:49:05.373Z,100472.65
2022-10-02T00:51:48.417Z,100477.61
2022-10-02T00:54:48.727Z,100481.46
2022-10-02T00:57:32.164Z,100478.00
2022-10-02T01:00:07.474Z,100473.81
2022-10-02T01:02:53.968Z,100480.14
2022-10-02T01:05:22.291Z,100481.77
2022-10-02T01:07:53.467Z,100484.63
2022-10-02T01:10:25.645Z,100485.88
2022-10-02T01:12:56.367Z,100488.27
2022-10-02T01:15:35.148Z,100488.64
2022-10-02T01:18:03.992Z,100489.73
2022-10-02T01:20:45.153Z,100490.58
2022-10-02T01:23:25.378Z,100488.80
2022-10-02T01:25:54.030Z,100488.59
2022-10-02T01:28:23.072Z,100490.92
2022-10-02T01:30:56.813Z,100491.41
2022-10-02T01:33:24.863Z,100497.09
2022-10-02T01:35:53.181Z,100491.89
2022-10-02T01:38:23.736Z,100492.81
2022-10-02T01:40:52.097Z,100494.25
2022-10-02T01:43:24.891Z,100492.00
2022-10-02T01:46:07.714Z,100493.35
2022-10-02T01:48:54.184Z,100494.94
2022-10-02T01:51:55.396Z,100500.77
2022-10-02T01:54:23.452Z,100500.02
2022-10-02T01:57:09.760Z,100500.73
2022-10-02T01:59:37.773Z,100502.91
2022-10-02T02:02:20.809Z,100505.20
2022-10-02T02:04:48.924Z,100508.34
2022-10-02T02:07:35.599Z,100507.84
2022-10-02T02:10:24.796Z,100504.91
2022-10-02T02:13:01.232Z,100509.98
2022-10-02T02:15:43.867Z,100518.06
2022-10-02T02:18:24.231Z,100516.34
2022-10-02T02:20:56.251Z,100517.13
2022-10-02T02:23:28.580Z,100517.42
2022-10-02T02:26:19.043Z,100516.94
2022-10-02T02:28:52.789Z,100516.09
2022-10-02T02:31:23.597Z,100511.48
2022-10-02T02:33:59.932Z,100511.19
2022-10-02T02:36:35.981Z,100509.17
2022-10-02T02:39:10.031Z,100510.04
2022-10-02T02:41:44.092Z,100510.48
2022-10-02T02:44:36.678Z,100515.46
2022-10-02T02:47:14.453Z,100508.58
2022-10-02T02:49:48.496Z,100526.52
2022-10-02T02:52:22.656Z,100531.90
2022-10-02T02:54:56.584Z,100532.32
2022-10-02T02:57:33.611Z,100527.89
2022-10-02T03:00:03.225Z,100527.14
2022-10-02T03:02:31.573Z,100526.05
2022-10-02T03:04:59.992Z,100528.29
2022-10-02T03:07:28.299Z,100529.66
2022-10-02T03:10:17.487Z,100531.90
2022-10-02T03:13:00.803Z,100532.71
2022-10-02T03:15:38.868Z,100535.36
2022-10-02T03:18:29.839Z,100533.97
2022-10-02T03:20:57.932Z,100533.70
2022-10-02T03:23:41.009Z,100531.33
2022-10-02T03:26:17.042Z,100530.55
2022-10-02T03:28:56.635Z,100533.88
2022-10-02T03:31:29.860Z,100535.60
2022-10-02T03:34:00.674Z,100535.39
2022-10-02T03:36:29.362Z,100536.43
2022-10-02T03:41:50.331Z,100532.26
2022-10-02T03:44:18.507Z,100536.88
2022-10-02T03:46:47.127Z,100543.58
2022-10-02T03:49:15.278Z,100540.86
2022-10-02T03:51:43.456Z,100538.61
2022-10-02T03:54:20.380Z,100542.98
2022-10-02T03:56:56.920Z,100542.78
2022-10-02T03:59:40.570Z,100548.19
2022-10-02T04:02:38.061Z,100547.00
2022-10-02T04:05:28.095Z,100548.92
2022-10-02T04:08:22.783Z,100548.82
2022-10-02T04:10:54.360Z,100550.18
2022-10-02T04:13:33.559Z,100556.53
2022-10-02T04:16:10.887Z,100553.46
2022-10-02T04:18:52.502Z,100557.79
2022-10-02T04:21:34.474Z,100557.01
2022-10-02T04:24:31.953Z,100560.88
2022-10-02T04:27:32.008Z,100563.52
2022-10-02T04:30:04.385Z,100571.98
2022-10-02T04:32:37.047Z,100574.38
2022-10-02T04:35:20.047Z,100580.34
2022-10-02T04:37:50.676Z,100581.86
2022-10-02T04:41:15.591Z,100584.64
2022-10-02T04:44:11.452Z,100582.63
2022-10-02T04:46:42.516Z,100586.14
2022-10-02T04:49:32.013Z,100581.52
2022-10-02T04:52:27.017Z,100575.89
2022-10-02T04:55:38.140Z,100574.60
2022-10-02T04:58:12.052Z,100579.88
2022-10-02T05:00:49.724Z,100579.89
2022-10-02T05:03:51.860Z,100584.10
2022-10-02T05:06:41.160Z,100584.80
2022-10-02T05:09:17.488Z,100589.50
2022-10-02T05:12:10.928Z,100585.61
2022-10-02T05:15:07.860Z,100583.10
2022-10-02T05:18:08.238Z,100575.23
2022-10-02T05:20:45.433Z,100573.84
2022-10-02T05:23:16.255Z,100573.61
2022-10-02T05:26:09.653Z,100579.03
2022-10-02T05:28:53.793Z,100578.83
2022-10-02T05:31:44.605Z,100590.43
2022-10-02T05:34:49.905Z,100597.91
2022-10-02T05:37:36.560Z,100601.95
2022-10-02T05:40:04.645Z,100604.81
2022-10-02T05:42:49.154Z,100604.73
2022-10-02T05:45:25.370Z,100604.73
2022-10-02T05:48:01.664Z,100608.11
2022-10-02T05:50:36.605Z,100602.04
2022-10-02T05:53:23.849Z,100606.80
2022-10-02T05:56:09.116Z,100607.58
2022-10-02T05:58:57.337Z,100612.04
2022-10-02T06:01:39.835Z,100611.20
2022-10-02T06:04:20.903Z,100615.16
2022-10-02T06:06:55.092Z,100618.06
2022-10-02T06:09:25.834Z,100618.10
2022-10-02T06:12:09.421Z,100622.29
2022-10-02T06:14:42.325Z,100625.42
2022-10-02T06:17:27.252Z,100624.63
2022-10-02T06:20:05.101Z,100629.89
2022-10-02T06:22:40.689Z,100626.75
2022-10-02T06:25:14.813Z,100624.08
2022-10-02T06:27:47.002Z,100626.23
2022-10-02T06:30:18.229Z,100624.95
2022-10-02T06:32:55.784Z,100628.53
2022-10-02T06:35:36.236Z,100634.80
2022-10-02T06:38:12.400Z,100630.14
2022-10-02T06:40:47.168Z,100638.41
2022-10-02T06:43:29.461Z,100634.63
2022-10-02T06:46:11.982Z,100631.06
2022-10-02T06:48:49.130Z,100629.64
2022-10-02T06:51:42.584Z,100629.45
2022-10-02T06:54:34.756Z,100630.63
2022-10-02T06:57:18.880Z,100624.11
2022-10-02T07:00:06.071Z,100615.22
2022-10-02T07:02:52.936Z,100632.92
2022-10-02T07:05:39.139Z,100631.67
2022-10-02T07:08:44.932Z,100637.40
2022-10-02T07:11:32.776Z,100636.90
2022-10-02T07:14:09.968Z,100639.41
2022-10-02T07:16:51.183Z,100646.44
2022-10-02T07:19:31.493Z,100645.84
2022-10-02T07:22:50.769Z,100648.66
2022-10-02T07:25:37.089Z,100651.10
2022-10-02T07:28:09.222Z,100645.34
2022-10-02T07:31:01.610Z,100648.46
2022-10-02T07:34:05.223Z,100642.17
2022-10-02T07:36:51.301Z,100651.02
2022-10-02T07:39:27.813Z,100652.09
2022-10-02T07:42:14.313Z,100662.33
2022-10-02T07:44:57.529Z,100659.60
2022-10-02T07:47:34.562Z,100645.56
2022-10-02T07:50:12.425Z,100652.27
2022-10-02T07:53:09.502Z,100659.42
2022-10-02T07:55:44.187Z,100661.69
2022-10-02T07:58:28.665Z,100661.80
2022-10-02T08:01:07.269Z,100668.07
2022-10-02T08:03:43.408Z,100665.95
2022-10-02T08:06:11.996Z,100664.08
2022-10-02T08:08:57.037Z,100656.47
2022-10-02T08:11:51.245Z,100661.48
2022-10-02T08:14:41.773Z,100658.69
2022-10-02T08:17:35.766Z,100658.79
2022-10-02T08:20:15.897Z,100655.25
2022-10-02T08:22:53.718Z,100664.33
2022-10-02T08:25:28.590Z,100659.66
2022-10-02T08:28:07.810Z,100658.35
2022-10-02T08:30:37.198Z,100658.95
2022-10-02T08:33:24.247Z,100663.89
2022-10-02T08:36:04.732Z,100663.36
2022-10-02T08:38:45.407Z,100665.93
2022-10-02T08:41:31.799Z,100670.04
2022-10-02T08:44:14.150Z,100676.91
2022-10-02T08:47:11.523Z,100677.60
2022-10-02T08:49:58.078Z,100674.27
2022-10-02T08:52:42.142Z,100679.02
2022-10-02T08:55:28.534Z,100674.10
2022-10-02T08:58:23.587Z,100670.27
2022-10-02T09:00:57.664Z,100672.29
2022-10-02T09:03:58.197Z,100675.56
2022-10-02T09:06:55.182Z,100672.45
2022-10-02T09:10:00.420Z,100679.58
2022-10-02T09:12:46.982Z,100676.72
2022-10-02T09:15:24.039Z,100675.72
2022-10-02T09:17:57.767Z,100674.77
2022-10-02T09:20:47.520Z,100675.76
2022-10-02T09:23:46.375Z,100665.40
2022-10-02T09:26:23.103Z,100664.95
2022-10-02T09:28:54.288Z,100667.55
2022-10-02T09:31:25.254Z,100671.33
2022-10-02T09:33:59.183Z,100664.56
2022-10-02T09:37:05.112Z,100662.18
2022-10-02T09:40:04.695Z,100661.91
2022-10-02T09:42:51.501Z,100664.53
2022-10-02T09:45:38.255Z,100657.25
2022-10-02T09:48:43.247Z,100651.06
2022-10-02T09:51:45.443Z,100664.39
2022-10-02T09:54:44.608Z,100664.95
2022-10-02T09:58:01.641Z,100661.80
2022-10-02T10:01:11.125Z,100667.39
2022-10-02T10:04:12.806Z,100665.54
2022-10-02T10:06:43.981Z,100663.63
2022-10-02T10:09:40.671Z,100662.79
2022-10-02T10:12:17.555Z,100664.35
2022-10-02T10:15:20.148Z,100663.85
2022-10-02T10:17:57.341Z,100657.60
2022-10-02T10:20:44.469Z,100657.55
2022-10-02T10:24:03.456Z,100656.39
2022-10-02T10:26:48.084Z,100659.63
2022-10-02T10:29:58.191Z,100661.14
2022-10-02T10:32:57.213Z,100657.36
2022-10-02T10:35:35.893Z,100646.90
2022-10-02T10:38:34.964Z,100647.39
2022-10-02T10:41:10.531Z,100656.92
2022-10-02T10:44:02.680Z,100655.11
2022-10-02T10:46:54.251Z,100660.20
2022-10-02T10:49:31.095Z,100666.41
2022-10-02T10:52:17.193Z,100672.25
2022-10-02T10:55:07.044Z,100673.77
2022-10-02T10:58:05.860Z,100669.27
2022-10-02T11:00:46.281Z,100668.31
2022-10-02T11:03:58.392Z,100673.30
2022-10-02T11:07:08.164Z,100671.07
2022-10-02T11:10:02.566Z,100670.52
2022-10-02T11:12:49.164Z,100670.34
2022-10-02T11:15:35.490Z,100672.73
2022-10-02T11:18:35.205Z,100672.94
2022-10-02T11:21:32.093Z,100681.70
2022-10-02T11:24:18.569Z,100682.96
2022-10-02T11:27:02.123Z,100690.32
2022-10-02T11:30:01.255Z,100689.83
2022-10-02T11:33:02.115Z,100696.46
2022-10-02T11:36:12.908Z,100693.05
2022-10-02T11:39:07.533Z,100694.30
2022-10-02T11:41:50.799Z,100691.30
2022-10-02T11:44:36.357Z,100698.45
2022-10-02T11:47:30.489Z,100694.30
2022-10-02T11:50:23.880Z,100701.21
2022-10-02T11:53:16.473Z,100697.96
2022-10-02T11:56:06.620Z,100696.19
2022-10-02T11:58:44.272Z,100698.23
2022-10-02T12:01:34.287Z,100701.58
2022-10-02T12:04:21.524Z,100704.69
2022-10-02T12:07:17.485Z,100706.09
2022-10-02T12:10:14.261Z,100707.17
2022-10-02T12:13:11.041Z,100702.08
2022-10-02T12:15:42.952Z,100704.85
2022-10-02T12:18:57.783Z,100700.80
2022-10-02T12:22:14.784Z,100700.84
2022-10-02T12:25:06.012Z,100700.98
2022-10-02T12:28:05.547Z,100704.90
2022-10-02T12:30:44.648Z,100714.95
2022-10-02T12:34:20.440Z,100719.42
2022-10-02T12:37:28.703Z,100713.70
2022-10-02T12:40:20.879Z,100714.31
2022-10-02T12:42:49.415Z,100712.38
2022-10-02T12:45:23.840Z,100711.73
2022-10-02T12:48:36.215Z,100717.45
2022-10-02T12:51:27.703Z,100717.14
2022-10-02T12:54:18.067Z,100718.88
2022-10-02T12:57:46.468Z,100719.51
2022-10-02T13:00:20.241Z,100710.79
2022-10-02T13:03:15.178Z,100711.85
2022-10-02T13:06:20.397Z,100691.84
2022-10-02T13:09:20.518Z,100692.60
2022-10-02T13:12:16.088Z,100702.31
2022-10-02T13:15:33.019Z,100700.89
2022-10-02T13:18:06.144Z,100701.80
2022-10-02T13:20:49.767Z,100697.81
2022-10-02T13:23:21.514Z,100697.88
2022-10-02T13:26:30.074Z,100695.48
2022-10-02T13:29:26.075Z,100696.46
2022-10-02T13:32:36.318Z,100692.17
2022-10-02T13:35:16.727Z,100694.10
2022-10-02T13:37:55.302Z,100672.27
2022-10-02T13:40:28.912Z,100677.12
2022-10-02T13:43:06.214Z,100666.67
2022-10-02T13:45:45.975Z,100661.93
2022-10-02T13:48:47.242Z,100668.77
2022-10-02T13:51:44.298Z,100675.37
2022-10-02T13:54:24.495Z,100671.88
2022-10-02T13:57:20.973Z,100656.95
2022-10-02T13:59:52.096Z,100666.88
2022-10-02T14:02:42.971Z,100666.94
2022-10-02T14:05:17.125Z,100667.59
2022-10-02T14:08:12.132Z,100664.27
2022-10-02T14:10:42.992Z,100661.33
2022-10-02T14:13:27.348Z,100661.08
2022-10-02T14:16:18.286Z,100655.55
2022-10-02T14:19:05.126Z,100652.65
2022-10-02T14:22:11.579Z,100640.78
2022-10-02T14:25:00.728Z,100659.63
2022-10-02T14:27:31.981Z,100660.72
2022-10-02T14:30:07.374Z,100655.70
2022-10-02T14:32:45.667Z,100654.88
2022-10-02T14:35:28.525Z,100655.54
2022-10-02T14:38:12.310Z,100635.84
2022-10-02T14:40:54.009Z,100651.33
2022-10-02T14:43:43.579Z,100654.58
2022-10-02T14:46:30.010Z,100657.46
2022-10-02T14:49:07.531Z,100659.02
2022-10-02T14:51:51.967Z,100665.90
2022-10-02T14:54:43.262Z,100663.75
2022-10-02T14:57:31.702Z,100669.96
2022-10-02T15:00:08.779Z,100668.12
2022-10-02T15:02:53.306Z,100661.34
2022-10-02T15:05:45.609Z,100673.65
2022-10-02T15:08:34.114Z,100668.84
2022-10-02T15:11:06.568Z,100673.58
2022-10-02T15:13:43.414Z,100675.67
2022-10-02T15:16:59.998Z,100678.63
2022-10-02T15:19:37.946Z,100666.07
2022-10-02T15:22:20.401Z,100675.88
2022-10-02T15:25:06.755Z,100666.08
2022-10-02T15:28:31.298Z,100668.76
2022-10-02T15:31:05.446Z,100668.84
2022-10-02T15:34:14.606Z,100662.57
2022-10-02T15:37:06.766Z,100661.05
2022-10-02T15:40:09.442Z,100667.82
2022-10-02T15:43:03.443Z,100668.80
2022-10-02T15:45:52.885Z,100668.27
2022-10-02T15:48:39.018Z,100670.83
2022-10-02T15:51:09.950Z,100668.05
2022-10-02T15:54:04.143Z,100673.24
2022-10-02T15:56:48.114Z,100675.41
2022-10-02T15:59:48.562Z,100679.20
2022-10-02T16:02:29.421Z,100684.42
2022-10-02T16:05:14.046Z,100685.61
2022-10-02T16:08:15.966Z,100689.05
2022-10-02T16:10:58.971Z,100689.77
2022-10-02T16:13:38.061Z,100692.80
2022-10-02T16:16:33.425Z,100690.02
2022-10-02T16:19:01.550Z,100691.51
2022-10-02T16:21:48.194Z,100690.96
2022-10-02T16:24:34.907Z,100691.18
2022-10-02T16:27:34.100Z,100690.33
2022-10-02T16:30:15.372Z,100693.84
2022-10-02T16:32:46.129Z,100698.27
2022-10-02T16:35:45.188Z,100693.75
2022-10-02T16:38:36.989Z,100676.16
2022-10-02T16:41:39.597Z,100691.55
2022-10-02T16:44:26.015Z,100688.41
2022-10-02T16:47:14.148Z,100690.94
2022-10-02T16:50:02.890Z,100690.69
2022-10-02T16:52:39.381Z,100689.63
2022-10-02T16:55:35.873Z,100689.94
2022-10-02T16:58:10.028Z,100686.79
2022-10-02T17:01:01.262Z,100692.21
2022-10-02T17:04:11.260Z,100691.20
2022-10-02T17:07:06.548Z,100688.88
2022-10-02T17:09:58.562Z,100689.32
2022-10-02T17:12:47.076Z,100676.45
2022-10-02T17:15:34.347Z,100689.58
2022-10-02T17:18:39.013Z,100696.77
2022-10-02T17:21:29.602Z,100698.73
2022-10-02T17:24:25.526Z,100698.15
2022-10-02T17:27:15.242Z,100700.46
2022-10-02T17:30:04.952Z,100698.63
2022-10-02T17:32:37.602Z,100696.48
2022-10-02T17:35:28.214Z,100700.55
2022-10-02T17:38:06.178Z,100701.91
2022-10-02T17:40:51.059Z,100702.20
2022-10-02T17:43:50.850Z,100700.77
2022-10-02T17:46:41.192Z,100698.48
2022-10-02T17:49:18.136Z,100706.01
2022-10-02T17:52:38.419Z,100706.51
2022-10-02T17:55:34.544Z,100705.39
2022-10-02T17:58:57.131Z,100706.66
2022-10-02T18:01:46.914Z,100709.76
2022-10-02T18:04:49.163Z,100711.39
2022-10-02T18:07:26.275Z,100705.35
2022-10-02T18:10:17.559Z,100706.39
2022-10-02T18:13:06.680Z,100704.48
2022-10-02T18:16:14.010Z,100703.04
2022-10-02T18:19:09.904Z,100702.02
2022-10-02T18:22:05.409Z,100707.31
2022-10-02T18:24:39.810Z,100706.85
2022-10-02T18:27:18.614Z,100702.59
2022-10-02T18:29:52.398Z,100704.77
2022-10-02T18:32:49.762Z,100708.36
2022-10-02T18:35:50.390Z,100708.66
2022-10-02T18:38:40.983Z,100710.92
2022-10-02T18:41:47.007Z,100711.32
2022-10-02T18:44:24.106Z,100714.77
2022-10-02T18:47:05.634Z,100716.71
2022-10-02T18:49:41.164Z,100716.38
2022-10-02T18:52:24.350Z,100711.27
2022-10-02T18:55:06.246Z,100713.63
2022-10-02T18:58:15.858Z,100713.59
2022-10-02T19:01:13.381Z,100711.77
2022-10-02T19:04:04.318Z,100703.46
2022-10-02T19:06:46.043Z,100715.09
2022-10-02T19:09:19.319Z,100713.50
2022-10-02T19:11:58.983Z,100716.42
2022-10-02T19:14:34.428Z,100716.84
2022-10-02T19:17:06.196Z,100717.75
2022-10-02T19:19:35.536Z,100719.44
2022-10-02T19:22:23.405Z,100702.23
2022-10-02T19:25:03.510Z,100717.45
2022-10-02T19:27:36.408Z,100712.86
2022-10-02T19:30:08.315Z,100711.77
2022-10-02T19:32:43.288Z,100705.77
2022-10-02T19:35:19.218Z,100710.22
2022-10-02T19:37:50.399Z,100707.11
2022-10-02T19:40:24.003Z,100704.23
2022-10-02T19:43:04.256Z,100699.77
2022-10-02T19:45:35.747Z,100697.80
2022-10-02T19:48:09.835Z,100696.60
2022-10-02T19:50:40.971Z,100694.34
2022-10-02T19:53:24.504Z,100696.59
2022-10-02T19:56:30.247Z,100691.84
2022-10-02T19:59:12.998Z,100694.35
2022-10-02T20:01:51.731Z,100692.86
2022-10-02T20:04:23.638Z,100688.49
2022-10-02T20:07:00.139Z,100681.68
2022-10-02T20:09:44.147Z,100675.67
2022-10-02T20:12:17.288Z,100675.77
2022-10-02T20:14:53.423Z,100677.41
2022-10-02T20:17:22.235Z,100677.04
2022-10-02T20:19:55.319Z,100675.54
2022-10-02T20:22:48.543Z,100673.13
2022-10-02T20:25:26.687Z,100669.59
2022-10-02T20:28:12.266Z,100670.24
2022-10-02T20:30:49.788Z,100668.41
2022-10-02T20:33:47.344Z,100668.13
2022-10-02T20:36:23.728Z,100669.43
2022-10-02T20:39:19.140Z,100664.86
2022-10-02T20:41:50.312Z,100668.08
2022-10-02T20:44:18.924Z,100665.95
2022-10-02T20:47:17.654Z,100670.85
2022-10-02T20:49:49.648Z,100668.86
2022-10-02T20:52:53.261Z,100661.47
2022-10-02T20:55:36.479Z,100666.21
2022-10-02T20:58:13.751Z,100665.60
2022-10-02T21:01:22.212Z,100661.77
2022-10-02T21:04:20.178Z,100664.70
2022-10-02T21:07:13.135Z,100663.27
2022-10-02T21:10:20.173Z,100646.30
2022-10-02T21:13:25.776Z,100655.70
2022-10-02T21:16:18.550Z,100651.61
2022-10-02T21:18:48.057Z,100651.67
2022-10-02T21:21:27.082Z,100651.88
2022-10-02T21:24:18.349Z,100653.09
2022-10-02T21:27:19.532Z,100651.81
2022-10-02T21:29:56.592Z,100651.56
2022-10-02T21:32:40.732Z,100652.14
2022-10-02T21:35:31.955Z,100650.17
2022-10-02T21:38:23.690Z,100653.88
2022-10-02T21:41:29.311Z,100647.29
2022-10-02T21:44:06.193Z,100635.31
2022-10-02T21:46:58.597Z,100649.57
2022-10-02T21:49:35.921Z,100651.33
2022-10-02T21:52:27.173Z,100654.30
2022-10-02T21:55:13.679Z,100649.10
2022-10-02T21:58:02.965Z,100652.73
2022-10-02T22:00:31.717Z,100642.05
2022-10-02T22:03:01.237Z,100642.52
2022-10-02T22:05:51.413Z,100645.25
2022-10-02T22:09:03.492Z,100637.90
2022-10-02T22:11:43.320Z,100636.46
2022-10-02T22:14:23.196Z,100637.14
2022-10-02T22:16:57.537Z,100633.41
2022-10-02T22:19:47.341Z,100637.09
2022-10-02T22:23:06.391Z,100639.45
2022-10-02T22:26:06.283Z,100635.16
2022-10-02T22:28:40.746Z,100622.92
2022-10-02T22:31:16.645Z,100635.56
2022-10-02T22:33:55.142Z,100637.55
2022-10-02T22:36:44.902Z,100634.97
2022-10-02T22:39:41.482Z,100633.17
2022-10-02T22:42:20.722Z,100635.50
2022-10-02T22:44:54.641Z,100635.22
2022-10-02T22:47:23.190Z,100636.66
2022-10-02T22:50:03.606Z,100637.48
2022-10-02T22:52:51.293Z,100634.92
2022-10-02T22:55:29.316Z,100634.64
2022-10-02T22:58:02.607Z,100637.42
2022-10-02T23:00:38.727Z,100636.03
2022-10-02T23:03:27.570Z,100634.27
2022-10-02T23:06:04.950Z,100633.05
2022-10-02T23:08:45.318Z,100630.64
2022-10-02T23:11:19.591Z,100628.45
2022-10-02T23:13:59.226Z,100628.06
2022-10-02T23:16:41.230Z,100630.06
2022-10-02T23:19:22.026Z,100626.65
2022-10-02T23:22:20.901Z,100624.98
2022-10-02T23:25:08.942Z,100622.55
2022-10-02T23:28:09.524Z,100625.73
2022-10-02T23:31:09.432Z,100623.80
2022-10-02T23:33:48.242Z,100622.23
2022-10-02T23:36:24.524Z,100624.13
2022-10-02T23:39:11.295Z,100620.24
2022-10-02T23:41:48.235Z,100619.18
2022-10-02T23:44:17.407Z,100620.80
2022-10-02T23:46:49.031Z,100616.80
2022-10-02T23:49:20.063Z,100615.33
2022-10-02T23:52:05.962Z,100613.82
2022-10-02T23:54:37.154Z,100607.90
2022-10-02T23:57:29.670Z,100601.25
